createdAt,value
2024-02-13T00:01:52.944Z,0.75
2024-02-13T00:06:48.624Z,1.15
2024-02-13T00:09:15.700Z,0.73
2024-02-13T00:11:44.533Z,1.20
2024-02-13T00:14:14.348Z,1.83
2024-02-13T00:16:43.051Z,0.80
2024-02-13T00:19:15.289Z,1.33
2024-02-13T00:21:43.429Z,1.15
2024-02-13T00:24:17.385Z,1.70
2024-02-13T00:26:48.496Z,0.68
2024-02-13T00:29:24.501Z,1.02
2024-02-13T00:31:52.135Z,1.40
2024-02-13T00:36:55.104Z,1.38
2024-02-13T00:39:22.809Z,0.75
2024-02-13T00:41:56.273Z,1.88
2024-02-13T00:44:29.296Z,1.83
2024-02-13T00:47:02.457Z,1.23
2024-02-13T00:49:32.997Z,1.45
2024-02-13T00:52:05.990Z,1.60
2024-02-13T00:54:33.148Z,1.13
2024-02-13T00:57:02.758Z,1.55
2024-02-13T00:59:30.467Z,0.95
2024-02-13T01:02:00.269Z,0.80
2024-02-13T01:04:28.292Z,1.15
2024-02-13T01:06:59.553Z,0.95
2024-02-13T01:09:30.459Z,1.50
2024-02-13T01:12:00.526Z,1.30
2024-02-13T01:14:31.852Z,1.92
2024-02-13T01:17:00.700Z,1.85
2024-02-13T01:19:31.271Z,2.83
2024-02-13T01:21:58.712Z,1.08
2024-02-13T01:24:33.352Z,0.68
2024-02-13T01:27:03.176Z,1.30
2024-02-13T01:29:37.185Z,1.98
2024-02-13T01:32:07.965Z,2.20
2024-02-13T01:34:37.513Z,2.10
2024-02-13T01:37:06.033Z,1.15
2024-02-13T01:39:35.608Z,1.10
2024-02-13T01:42:03.001Z,2.65
2024-02-13T01:44:32.047Z,0.70
2024-02-13T01:46:59.102Z,1.95
2024-02-13T01:49:30.229Z,1.48
2024-02-13T01:52:00.178Z,2.28
2024-02-13T01:54:28.440Z,2.28
2024-02-13T01:56:56.136Z,0.80
2024-02-13T01:59:26.874Z,0.68
2024-02-13T02:01:55.262Z,1.58
2024-02-13T02:04:23.991Z,1.05
2024-02-13T02:06:51.273Z,1.88
2024-02-13T02:09:19.374Z,0.80
2024-02-13T02:11:48.167Z,1.58
2024-02-13T02:14:17.808Z,1.85
2024-02-13T02:16:47.459Z,1.15
2024-02-13T02:19:16.287Z,1.63
2024-02-13T02:21:47.896Z,1.75
2024-02-13T02:24:16.680Z,0.65
2024-02-13T02:26:44.130Z,0.73
2024-02-13T02:29:11.379Z,0.52
2024-02-13T02:31:39.675Z,1.63
2024-02-13T02:34:06.650Z,0.70
2024-02-13T02:36:33.745Z,1.02
2024-02-13T02:39:00.797Z,1.77
2024-02-13T02:41:27.903Z,1.70
2024-02-13T02:43:54.928Z,0.80
2024-02-13T02:46:21.975Z,1.23
2024-02-13T02:48:51.760Z,0.50
2024-02-13T02:51:18.811Z,1.75
2024-02-13T02:53:45.754Z,1.45
2024-02-13T02:56:16.954Z,1.13
2024-02-13T02:58:44.689Z,0.60
2024-02-13T03:01:15.291Z,1.30
2024-02-13T03:03:44.993Z,1.33
2024-02-13T03:06:14.997Z,0.90
2024-02-13T03:08:44.073Z,1.60
2024-02-13T03:11:14.683Z,1.05
2024-02-13T03:13:41.829Z,0.50
2024-02-13T03:16:10.579Z,1.55
2024-02-13T03:18:39.612Z,0.50
2024-02-13T03:21:11.242Z,0.90
2024-02-13T03:23:42.208Z,1.00
2024-02-13T03:26:10.705Z,1.15
2024-02-13T03:28:41.449Z,3.33
2024-02-13T03:31:13.193Z,0.55
2024-02-13T03:33:40.564Z,0.65
2024-02-13T03:36:11.285Z,0.25
2024-02-13T03:38:50.468Z,0.70
2024-02-13T03:41:33.670Z,0.50
2024-02-13T03:44:08.234Z,1.48
2024-02-13T03:46:45.111Z,0.80
2024-02-13T03:49:16.299Z,0.93
2024-02-13T03:51:43.576Z,1.25
2024-02-13T03:54:13.614Z,1.90
2024-02-13T03:56:45.555Z,1.38
2024-02-13T03:59:19.494Z,0.75
2024-02-13T04:01:50.198Z,1.13
2024-02-13T04:04:32.142Z,0.60
2024-02-13T04:07:11.885Z,0.80
2024-02-13T04:10:02.259Z,0.63
2024-02-13T04:12:40.449Z,0.82
2024-02-13T04:17:48.334Z,0.52
2024-02-13T04:20:30.944Z,1.30
2024-02-13T04:23:09.831Z,0.70
2024-02-13T04:25:44.923Z,1.52
2024-02-13T04:28:17.520Z,1.73
2024-02-13T04:30:46.213Z,0.30
2024-02-13T04:33:17.142Z,0.80
2024-02-13T04:35:44.417Z,0.73
2024-02-13T04:38:14.250Z,1.38
2024-02-13T04:40:42.286Z,0.57
2024-02-13T04:43:19.404Z,0.77
2024-02-13T04:45:46.734Z,0.85
2024-02-13T04:48:21.021Z,2.40
2024-02-13T04:50:56.202Z,1.70
2024-02-13T04:53:43.569Z,1.02
2024-02-13T04:59:18.397Z,1.38
2024-02-13T05:01:57.588Z,0.93
2024-02-13T05:04:30.568Z,1.17
2024-02-13T05:07:43.205Z,0.95
2024-02-13T05:10:15.197Z,1.42
2024-02-13T05:12:44.902Z,0.90
2024-02-13T05:15:23.899Z,1.55
2024-02-13T05:18:03.294Z,1.02
2024-02-13T05:20:44.853Z,1.65
2024-02-13T05:23:22.100Z,0.75
2024-02-13T05:25:54.988Z,0.50
2024-02-13T05:28:27.191Z,0.57
2024-02-13T05:30:57.440Z,1.48
2024-02-13T05:33:28.160Z,1.15
2024-02-13T05:35:55.683Z,0.85
2024-02-13T05:38:26.855Z,0.52
2024-02-13T05:40:56.799Z,0.35
2024-02-13T05:43:27.157Z,1.25
2024-02-13T05:46:02.099Z,0.65
2024-02-13T05:48:32.368Z,0.90
2024-02-13T05:50:59.741Z,0.68
2024-02-13T05:53:30.165Z,0.70
2024-02-13T05:55:57.564Z,0.40
2024-02-13T05:58:30.081Z,0.68
2024-02-13T06:00:59.663Z,0.57
2024-02-13T06:03:26.783Z,0.60
2024-02-13T06:05:56.492Z,0.45
2024-02-13T06:08:26.296Z,0.77
2024-02-13T06:11:04.319Z,0.73
2024-02-13T06:20:16.359Z,0.68
2024-02-13T06:23:44.818Z,0.50
2024-02-13T06:28:58.330Z,1.17
2024-02-13T06:31:25.580Z,0.73
2024-02-13T06:34:08.713Z,1.70
2024-02-13T06:36:47.968Z,1.20
2024-02-13T06:39:36.057Z,1.17
2024-02-13T06:42:05.742Z,0.93
2024-02-13T06:44:33.291Z,0.85
2024-02-13T06:47:01.300Z,1.10
2024-02-13T06:49:31.925Z,0.85
2024-02-13T06:51:59.218Z,2.85
2024-02-13T06:54:26.275Z,1.02
2024-02-13T06:56:53.167Z,0.65
2024-02-13T06:59:20.183Z,1.83
2024-02-13T07:01:47.042Z,1.60
2024-02-13T07:04:14.656Z,4.10
2024-02-13T07:09:31.446Z,3.30
2024-02-13T07:11:58.426Z,1.52
2024-02-13T07:14:26.368Z,0.95
2024-02-13T07:16:54.267Z,2.60
2024-02-13T07:19:21.188Z,2.58
2024-02-13T07:21:48.046Z,1.45
2024-02-13T07:24:14.811Z,2.55
2024-02-13T07:26:41.694Z,1.52
2024-02-13T07:29:08.539Z,0.95
2024-02-13T07:31:39.449Z,1.33
2024-02-13T07:34:06.932Z,1.30
2024-02-13T07:36:35.275Z,1.90
2024-02-13T07:39:02.330Z,1.52
2024-02-13T07:41:38.771Z,2.03
2024-02-13T07:44:05.755Z,1.75
2024-02-13T07:46:37.542Z,1.38
2024-02-13T07:49:04.553Z,0.77
2024-02-13T07:51:34.054Z,0.85
2024-02-13T07:54:01.017Z,1.67
2024-02-13T07:56:30.588Z,1.42
2024-02-13T07:59:00.477Z,1.55
2024-02-13T08:01:28.079Z,2.65
2024-02-13T08:06:22.818Z,1.70
2024-02-13T08:08:51.293Z,1.13
2024-02-13T08:11:18.455Z,2.83
2024-02-13T08:13:45.741Z,2.10
2024-02-13T08:16:12.721Z,2.10
2024-02-13T08:18:42.179Z,1.88
2024-02-13T08:21:09.274Z,1.90
2024-02-13T08:23:38.684Z,1.58
2024-02-13T08:26:06.465Z,1.80
2024-02-13T08:28:33.352Z,2.83
2024-02-13T08:31:00.301Z,1.75
2024-02-13T08:33:27.408Z,1.95
2024-02-13T08:36:03.952Z,2.63
2024-02-13T08:38:31.325Z,2.60
2024-02-13T08:40:58.394Z,1.88
2024-02-13T08:43:26.684Z,1.30
2024-02-13T08:45:53.624Z,1.65
2024-02-13T08:48:20.748Z,3.10
2024-02-13T08:50:49.766Z,1.27
2024-02-13T08:53:16.636Z,1.17
2024-02-13T08:55:43.424Z,1.90
2024-02-13T08:58:10.279Z,1.58
2024-02-13T09:00:37.091Z,1.88
2024-02-13T09:03:04.381Z,4.15
2024-02-13T09:05:31.362Z,1.13
2024-02-13T09:07:58.206Z,1.58
2024-02-13T09:10:25.023Z,2.92
2024-02-13T09:12:51.876Z,1.50
2024-02-13T09:15:18.993Z,1.25
2024-02-13T09:17:46.878Z,1.63
2024-02-13T09:20:22.629Z,1.55
2024-02-13T09:22:50.742Z,3.95
2024-02-13T09:25:20.521Z,3.20
2024-02-13T09:27:52.585Z,2.08
2024-02-13T09:30:19.915Z,2.33
2024-02-13T09:32:50.459Z,1.05
2024-02-13T09:35:18.869Z,1.58
2024-02-13T09:37:45.751Z,2.92
2024-02-13T09:40:14.628Z,1.17
2024-02-13T09:42:45.810Z,2.15
2024-02-13T09:45:14.830Z,1.52
2024-02-13T09:47:42.872Z,1.52
2024-02-13T09:50:15.555Z,3.25
2024-02-13T09:52:55.935Z,1.75
2024-02-13T09:55:23.401Z,1.05
2024-02-13T09:57:51.354Z,1.30
2024-02-13T10:00:19.625Z,3.22
2024-02-13T10:02:51.020Z,2.88
2024-02-13T10:05:19.150Z,0.70
2024-02-13T10:07:46.404Z,1.23
2024-02-13T10:10:14.439Z,2.88
2024-02-13T10:13:04.776Z,3.00
2024-02-13T10:15:46.570Z,2.40
2024-02-13T10:18:15.020Z,2.92
2024-02-13T10:20:43.505Z,1.90
2024-02-13T10:23:15.689Z,2.88
2024-02-13T10:25:44.931Z,4.10
2024-02-13T10:28:14.321Z,2.58
2024-02-13T10:30:41.691Z,3.83
2024-02-13T10:33:08.772Z,2.72
2024-02-13T10:35:35.976Z,4.28
2024-02-13T10:38:08.669Z,2.65
2024-02-13T10:40:40.548Z,1.42
2024-02-13T10:43:13.406Z,2.33
2024-02-13T10:45:41.066Z,1.77
2024-02-13T10:48:31.756Z,1.90
2024-02-13T10:51:01.791Z,1.98
2024-02-13T10:53:29.663Z,0.77
2024-02-13T10:55:58.611Z,2.42
2024-02-13T10:58:35.307Z,2.40
2024-02-13T11:01:16.699Z,1.25
2024-02-13T11:03:46.418Z,3.35
2024-02-13T11:06:13.705Z,4.05
2024-02-13T11:08:40.922Z,2.13
2024-02-13T11:11:21.048Z,1.48
2024-02-13T11:13:50.698Z,2.60
2024-02-13T11:16:19.467Z,1.50
2024-02-13T11:18:51.837Z,1.55
2024-02-13T11:21:25.714Z,1.45
2024-02-13T11:23:58.778Z,1.35
2024-02-13T11:26:34.174Z,1.85
2024-02-13T11:29:21.851Z,1.50
2024-02-13T11:31:59.495Z,2.03
2024-02-13T11:34:44.817Z,1.00
2024-02-13T11:37:22.247Z,1.60
2024-02-13T11:39:50.138Z,3.33
2024-02-13T11:42:20.853Z,3.05
2024-02-13T11:44:50.532Z,1.67
2024-02-13T11:47:24.114Z,0.93
2024-02-13T11:49:52.213Z,3.65
2024-02-13T11:52:21.079Z,1.58
2024-02-13T11:54:52.487Z,1.17
2024-02-13T11:57:22.097Z,2.33
2024-02-13T12:00:02.887Z,1.48
2024-02-13T12:17:13.756Z,0.20
2024-02-13T12:19:45.133Z,1.38
2024-02-13T12:22:17.133Z,1.20
2024-02-13T12:24:46.771Z,1.00
2024-02-13T12:27:17.871Z,2.05
2024-02-13T12:29:45.878Z,1.30
2024-02-13T12:32:21.207Z,1.70
2024-02-13T12:34:49.924Z,1.50
2024-02-13T12:37:19.186Z,1.15
2024-02-13T12:39:48.372Z,2.33
2024-02-13T12:42:20.057Z,1.35
2024-02-13T12:44:49.362Z,1.00
2024-02-13T12:47:20.673Z,0.70
2024-02-13T12:49:48.567Z,0.93
2024-02-13T12:52:23.677Z,1.50
2024-02-13T12:54:53.025Z,0.75
2024-02-13T12:57:22.254Z,1.52
2024-02-13T12:59:49.765Z,2.75
2024-02-13T13:04:54.723Z,0.50
2024-02-13T13:07:29.764Z,1.70
2024-02-13T13:09:59.320Z,0.50
2024-02-13T13:12:28.681Z,0.98
2024-02-13T13:15:09.331Z,0.88
2024-02-13T13:17:40.670Z,0.70
2024-02-13T13:22:49.535Z,1.50
2024-02-13T13:25:25.452Z,2.13
2024-02-13T13:27:53.309Z,1.33
2024-02-13T13:30:21.533Z,0.65
2024-02-13T13:32:50.125Z,1.33
2024-02-13T13:35:21.421Z,0.73
2024-02-13T13:37:51.148Z,2.17
2024-02-13T13:40:18.229Z,0.55
2024-02-13T13:42:45.927Z,1.30
2024-02-13T13:45:18.370Z,1.85
2024-02-13T13:47:49.153Z,1.67
2024-02-13T13:50:22.963Z,1.33
2024-02-13T13:52:56.072Z,3.03
2024-02-13T13:55:26.766Z,0.40
2024-02-13T13:57:59.065Z,1.83
2024-02-13T14:00:31.059Z,3.13
2024-02-13T14:03:03.824Z,0.50
2024-02-13T14:05:38.990Z,1.58
2024-02-13T14:08:11.919Z,0.88
2024-02-13T14:10:40.144Z,1.17
2024-02-13T14:13:15.418Z,0.45
2024-02-13T14:15:48.006Z,1.20
2024-02-13T14:18:23.140Z,1.15
2024-02-13T14:20:50.424Z,1.98
2024-02-13T14:23:21.627Z,1.77
2024-02-13T14:25:50.373Z,0.77
2024-02-13T14:28:17.446Z,2.13
2024-02-13T14:30:44.303Z,0.22
2024-02-13T14:33:13.220Z,0.60
2024-02-13T14:35:40.838Z,1.65
2024-02-13T14:40:40.734Z,1.30
2024-02-13T14:43:08.769Z,0.50
2024-02-13T14:45:42.251Z,1.95
2024-02-13T14:48:14.458Z,1.42
2024-02-13T14:50:42.477Z,1.73
2024-02-13T14:55:39.756Z,0.85
2024-02-13T14:58:15.121Z,0.95
2024-02-13T15:01:01.225Z,0.30
2024-02-13T15:03:29.583Z,0.60
2024-02-13T15:05:56.564Z,1.67
2024-02-13T15:08:26.092Z,0.63
2024-02-13T15:10:53.654Z,1.60
2024-02-13T15:15:52.271Z,0.98
2024-02-13T15:18:23.992Z,0.47
2024-02-13T15:20:51.284Z,0.52
2024-02-13T15:23:18.444Z,1.00
2024-02-13T15:25:46.687Z,0.55
2024-02-13T15:28:15.710Z,1.25
2024-02-13T15:30:42.617Z,0.40
2024-02-13T15:33:09.641Z,0.77
2024-02-13T15:35:43.369Z,0.82
2024-02-13T15:38:30.000Z,0.50
2024-02-13T15:41:15.562Z,0.93
2024-02-13T15:44:03.274Z,0.52
2024-02-13T15:46:48.613Z,1.67
2024-02-13T15:49:19.001Z,1.73
2024-02-13T15:51:46.860Z,0.85
2024-02-13T15:54:14.272Z,1.15
2024-02-13T15:56:49.956Z,0.70
2024-02-13T15:59:20.251Z,1.70
2024-02-13T16:01:47.365Z,2.13
2024-02-13T16:04:19.113Z,0.43
2024-02-13T16:06:48.302Z,1.00
2024-02-13T16:09:16.084Z,1.58
2024-02-13T16:11:43.515Z,0.35
2024-02-13T16:14:13.500Z,1.15
2024-02-13T16:16:40.875Z,1.02
2024-02-13T16:19:10.700Z,0.60
2024-02-13T16:21:45.558Z,1.05
2024-02-13T16:24:15.309Z,1.08
2024-02-13T16:26:44.747Z,0.88
2024-02-13T16:29:14.920Z,0.65
2024-02-13T16:31:44.238Z,2.45
2024-02-13T16:34:12.498Z,1.42
2024-02-13T16:36:45.836Z,0.90
2024-02-13T16:39:13.066Z,2.17
2024-02-13T16:41:40.187Z,1.08
2024-02-13T16:44:07.388Z,2.08
2024-02-13T16:46:36.808Z,2.45
2024-02-13T16:49:04.080Z,2.67
2024-02-13T16:51:39.469Z,3.22
2024-02-13T16:54:09.436Z,2.33
2024-02-13T16:59:59.648Z,2.58
2024-02-13T17:02:35.236Z,3.35
2024-02-13T17:05:10.731Z,4.03
2024-02-13T17:08:21.730Z,6.22
2024-02-13T17:10:49.093Z,5.78
2024-02-13T17:13:41.989Z,3.05
2024-02-13T17:16:10.070Z,3.25
2024-02-13T17:18:37.230Z,4.20
2024-02-13T17:25:14.766Z,3.03
2024-02-13T17:28:37.742Z,3.28
2024-02-13T18:00:14.910Z,2.25
2024-02-13T18:03:07.297Z,2.53
2024-02-13T18:06:35.376Z,1.67
2024-02-13T18:09:14.166Z,2.38
2024-02-13T18:12:00.355Z,3.58
2024-02-13T18:14:32.556Z,3.65
2024-02-13T18:17:25.867Z,2.50
2024-02-13T18:20:03.560Z,2.35
2024-02-13T18:22:45.656Z,2.53
2024-02-13T18:25:17.190Z,3.35
2024-02-13T18:27:48.846Z,3.05
2024-02-13T18:30:19.703Z,2.67
2024-02-13T18:35:28.167Z,3.38
2024-02-13T18:40:36.911Z,2.75
2024-02-13T18:43:35.900Z,2.53
2024-02-13T18:46:07.805Z,3.80
2024-02-13T18:48:47.708Z,3.10
2024-02-13T18:51:19.337Z,2.90
2024-02-13T18:53:50.163Z,2.97
2024-02-13T18:56:23.821Z,2.63
2024-02-13T18:58:56.900Z,4.07
2024-02-13T19:01:42.145Z,2.72
2024-02-13T19:04:21.396Z,4.10
2024-02-13T19:06:59.588Z,2.92
2024-02-13T19:12:33.960Z,3.13
2024-02-13T19:15:07.292Z,3.47
2024-02-13T19:20:49.518Z,5.43
2024-02-13T19:23:59.486Z,4.43
2024-02-13T19:26:39.111Z,3.03
2024-02-13T19:29:06.054Z,4.43
2024-02-13T19:31:42.467Z,3.67
2024-02-13T19:34:12.361Z,4.10
2024-02-13T19:36:52.602Z,2.78
2024-02-13T19:39:22.013Z,3.42
2024-02-13T19:41:58.853Z,2.60
2024-02-13T19:44:32.179Z,4.60
2024-02-13T19:46:59.863Z,5.00
2024-02-13T19:52:21.888Z,3.33
2024-02-13T19:54:49.299Z,3.17
2024-02-13T19:57:19.063Z,3.92
2024-02-13T19:59:47.993Z,4.80
2024-02-13T20:02:20.317Z,3.00
2024-02-13T20:04:49.103Z,3.47
2024-02-13T20:07:16.681Z,2.78
2024-02-13T20:12:15.075Z,2.85
2024-02-13T20:14:45.689Z,2.53
2024-02-13T20:17:13.356Z,2.95
2024-02-13T20:22:21.534Z,2.65
2024-02-13T20:24:48.737Z,4.07
2024-02-13T20:27:15.713Z,3.00
2024-02-13T20:29:44.031Z,3.67
2024-02-13T20:32:11.311Z,3.10
2024-02-13T20:34:38.714Z,2.38
2024-02-13T20:37:05.889Z,2.97
2024-02-13T20:39:34.046Z,3.40
2024-02-13T20:42:03.432Z,3.17
2024-02-13T20:44:36.614Z,3.67
2024-02-13T20:47:03.706Z,4.15
2024-02-13T20:49:32.022Z,2.85
2024-02-13T20:51:58.951Z,4.22
2024-02-13T20:54:26.118Z,2.65
2024-02-13T20:56:53.184Z,4.10
2024-02-13T20:59:21.188Z,5.75
2024-02-13T21:01:49.405Z,3.65
2024-02-13T21:04:16.743Z,3.72
2024-02-13T21:06:45.174Z,3.47
2024-02-13T21:09:13.542Z,3.17
2024-02-13T21:11:41.646Z,3.65
2024-02-13T21:14:08.945Z,3.65
2024-02-13T21:16:35.819Z,4.38
2024-02-13T21:19:03.073Z,3.15
2024-02-13T21:21:48.448Z,4.15
2024-02-13T21:24:15.423Z,1.95
2024-02-13T21:26:42.603Z,3.00
2024-02-13T21:29:10.085Z,7.55
2024-02-13T21:31:37.626Z,2.70
2024-02-13T21:36:37.834Z,2.28
2024-02-13T21:39:09.073Z,3.95
2024-02-13T21:41:37.169Z,2.88
2024-02-13T21:44:04.998Z,1.77
2024-02-13T21:46:32.660Z,3.58
2024-02-13T21:49:00.146Z,4.40
2024-02-13T21:53:54.093Z,3.30
2024-02-13T21:56:23.139Z,5.68
2024-02-13T21:58:50.613Z,2.15
2024-02-13T22:01:17.735Z,2.85
2024-02-13T22:03:44.697Z,5.07
2024-02-13T22:06:16.053Z,2.58
2024-02-13T22:08:44.283Z,3.17
2024-02-13T22:11:11.879Z,2.40
2024-02-13T22:13:38.706Z,2.92
2024-02-13T22:16:06.152Z,2.33
2024-02-13T22:21:00.121Z,3.05
2024-02-13T22:23:27.112Z,2.03
2024-02-13T22:25:57.858Z,1.83
2024-02-13T22:28:24.707Z,3.47
2024-02-13T22:30:51.660Z,2.70
2024-02-13T22:33:18.723Z,4.03
2024-02-13T22:35:45.842Z,3.85
2024-02-13T22:38:12.787Z,2.67
2024-02-13T22:40:39.614Z,2.45
2024-02-13T22:43:06.474Z,3.13
2024-02-13T22:45:33.543Z,2.72
2024-02-13T22:48:03.038Z,1.92
2024-02-13T22:50:30.766Z,1.67
2024-02-13T22:55:30.532Z,3.65
2024-02-13T22:58:00.749Z,1.63
2024-02-13T23:00:44.833Z,1.77
2024-02-13T23:03:14.018Z,3.03
2024-02-13T23:05:47.994Z,2.28
2024-02-13T23:08:16.768Z,2.70
2024-02-13T23:10:43.803Z,3.35
2024-02-13T23:13:13.531Z,2.40
2024-02-13T23:15:43.876Z,1.65
2024-02-13T23:18:12.088Z,1.33
2024-02-13T23:20:39.266Z,1.70
2024-02-13T23:23:06.376Z,2.65
2024-02-13T23:25:36.468Z,2.70
2024-02-13T23:28:08.003Z,2.05
2024-02-13T23:30:36.133Z,1.58
2024-02-13T23:33:03.397Z,1.27
2024-02-13T23:35:30.323Z,1.80
2024-02-13T23:37:57.271Z,1.15
2024-02-13T23:40:24.828Z,1.83
2024-02-13T23:45:19.779Z,0.95
2024-02-13T23:47:47.851Z,1.38
2024-02-13T23:50:15.076Z,1.60
2024-02-13T23:52:42.434Z,1.55
2024-02-13T23:55:10.684Z,1.65
2024-02-13T23:57:45.986Z,1.00
